Time;durP1;ratioP1;P1;durP2;ratioP2;P2;SDS_P1;SDS_P2;PMS_P1;PMS_P2;Temp;Humidity;BMP_temperature;BMP_pressure;BME280_temperature;BME280_humidity;BME280_pressure;Samples;Min_cycle;Max_cycle;Signal;HPM_P1;HPM_P2
2022/06/12 00:01:10;;;;;;;1999.90;999.90;;;11.00;99.90;;;;;;5104162;28;20485;-76
2022/06/12 00:03:37;;;;;;;1999.90;999.90;;;11.00;99.90;;;;;;5097393;28;20046;-77
2022/06/12 00:06:03;;;;;;;1999.90;999.90;;;11.00;99.90;;;;;;5090134;28;20028;-76
2022/06/12 00:08:33;;;;;;;1999.90;999.90;;;11.00;99.90;;;;;;5057535;28;20644;-76
2022/06/12 00:11:00;;;;;;;1999.90;999.90;;;10.90;99.90;;;;;;5107702;28;20050;-76
2022/06/12 00:13:33;;;;;;;1999.90;999.90;;;10.90;99.90;;;;;;5056309;28;20053;-76
2022/06/12 00:15:59;;;;;;;;;;;10.90;99.90;;;;;;5094658;28;20043;-77
2022/06/12 00:18:26;;;;;;;1999.90;999.90;;;10.90;99.90;;;;;;5085979;28;19923;-76
2022/06/12 00:23:51;;;;;;;1999.90;999.90;;;10.80;99.90;;;;;;5081241;28;20079;-76
2022/06/12 00:26:23;;;;;;;1999.90;999.90;;;10.80;99.90;;;;;;5076089;28;20126;-76
2022/06/12 00:28:59;;;;;;;1999.90;999.90;;;10.80;99.90;;;;;;5092115;28;20067;-76
2022/06/12 00:31:25;;;;;;;1999.90;999.90;;;10.80;99.90;;;;;;5094038;28;20449;-76
2022/06/12 00:33:50;;;;;;;1999.90;999.90;;;10.80;99.90;;;;;;5078967;28;20124;-76
2022/06/12 00:36:16;;;;;;;1999.90;999.90;;;10.90;99.90;;;;;;5069281;28;20120;-77
2022/06/12 00:38:42;;;;;;;1999.90;999.90;;;10.90;99.90;;;;;;5101524;28;20118;-76
2022/06/12 00:41:07;;;;;;;1999.90;999.90;;;10.90;99.90;;;;;;5096720;28;20039;-76
2022/06/12 00:43:33;;;;;;;1999.90;999.90;;;10.90;99.90;;;;;;5071737;28;20755;-76
2022/06/12 00:46:01;;;;;;;1999.90;999.90;;;11.00;99.90;;;;;;5085696;28;20613;-76
2022/06/12 00:48:31;;;;;;;1999.90;999.90;;;11.00;99.90;;;;;;5088232;28;20047;-75
2022/06/12 00:51:06;;;;;;;1999.90;999.90;;;11.00;99.90;;;;;;5069010;28;20055;-75
2022/06/12 00:53:37;;;;;;;1999.90;999.90;;;11.00;99.90;;;;;;5070462;28;20401;-75
2022/06/12 00:56:14;;;;;;;1999.90;999.90;;;11.00;99.90;;;;;;5082630;28;20401;-75
2022/06/12 00:58:44;;;;;;;1999.90;999.90;;;11.00;99.90;;;;;;5077162;28;20063;-76
2022/06/12 01:01:18;;;;;;;1999.90;999.90;;;11.00;99.90;;;;;;5097180;28;20051;-76
2022/06/12 01:06:34;;;;;;;1999.90;999.90;;;11.00;99.90;;;;;;5076341;28;20084;-76
2022/06/12 01:09:10;;;;;;;1999.90;999.90;;;11.00;99.90;;;;;;5088033;28;20040;-76
2022/06/12 01:11:37;;;;;;;1999.90;999.90;;;11.00;99.90;;;;;;5094480;28;20035;-76
2022/06/12 01:14:06;;;;;;;1999.90;999.90;;;11.00;99.90;;;;;;5094548;28;20089;-75
2022/06/12 01:16:31;;;;;;;1999.90;999.90;;;11.00;99.90;;;;;;5082442;28;20090;-76
2022/06/12 01:18:57;;;;;;;1999.90;999.90;;;11.00;99.90;;;;;;5051027;28;20106;-76
2022/06/12 01:22:00;;;;;;;1999.90;999.90;;;11.00;99.90;;;;;;5057025;28;20112;-76
2022/06/12 01:24:37;;;;;;;1999.90;999.90;;;11.00;99.90;;;;;;5080494;28;20650;-76
2022/06/12 01:27:38;;;;;;;1999.90;999.90;;;11.00;99.90;;;;;;5087206;28;20048;-76
2022/06/12 01:30:20;;;;;;;1999.90;999.90;;;11.00;99.90;;;;;;5060844;28;20052;-76
2022/06/12 01:33:11;;;;;;;1999.90;999.90;;;11.10;99.90;;;;;;5081875;28;20048;-76
2022/06/12 01:35:59;;;;;;;1999.90;999.90;;;11.10;99.90;;;;;;5077543;28;20055;-76
2022/06/12 01:38:52;;;;;;;1999.90;999.90;;;11.20;99.90;;;;;;5080112;28;20545;-76
2022/06/12 01:41:24;;;;;;;1999.90;999.90;;;11.20;99.90;;;;;;5058355;28;20057;-76
2022/06/12 01:44:28;;;;;;;1999.90;999.90;;;11.20;99.90;;;;;;5077462;28;20035;-76
2022/06/12 01:47:10;;;;;;;1999.90;999.90;;;11.30;99.90;;;;;;5078344;28;20428;-76
2022/06/12 01:49:43;;;;;;;1999.90;999.90;;;11.30;99.90;;;;;;5077697;28;20040;-76
2022/06/12 01:52:37;;;;;;;1999.90;999.90;;;11.30;99.90;;;;;;5065592;28;20099;-76
2022/06/12 01:55:14;;;;;;;1999.90;999.90;;;11.30;99.90;;;;;;5062646;28;20057;-76
2022/06/12 01:57:42;;;;;;;1999.90;999.90;;;11.30;99.90;;;;;;5077746;28;20152;-76
2022/06/12 02:00:15;;;;;;;1999.90;999.90;;;11.30;99.90;;;;;;5078758;28;20039;-76
2022/06/12 02:02:44;;;;;;;1999.90;999.90;;;11.30;99.90;;;;;;5081760;28;20435;-76
2022/06/12 02:05:36;;;;;;;1999.90;999.90;;;11.30;99.90;;;;;;5066143;28;20053;-76
2022/06/12 02:08:06;;;;;;;1999.90;999.90;;;11.30;99.90;;;;;;5082237;28;20040;-76
2022/06/12 02:10:46;;;;;;;1999.90;999.90;;;11.30;99.90;;;;;;5072018;28;20822;-76
2022/06/12 02:13:28;;;;;;;1999.90;999.90;;;11.30;99.90;;;;;;5057195;28;20496;-76
2022/06/12 02:16:12;;;;;;;1999.90;999.90;;;11.40;99.90;;;;;;5078089;28;20050;-76
2022/06/12 02:18:55;;;;;;;1999.90;999.90;;;11.40;99.90;;;;;;5075044;28;20044;-76
2022/06/12 02:21:37;;;;;;;;;;;11.40;99.90;;;;;;5082742;28;20044;-76
2022/06/12 02:24:07;;;;;;;1999.90;999.90;;;11.40;99.90;;;;;;5067053;28;19928;-76
2022/06/12 02:26:38;;;;;;;1999.90;999.90;;;11.40;99.90;;;;;;5082721;28;20059;-76
2022/06/12 02:29:11;;;;;;;1999.90;999.90;;;11.40;99.90;;;;;;5073804;28;20079;-76
2022/06/12 02:31:41;;;;;;;1999.90;999.90;;;11.40;99.90;;;;;;5077606;28;20093;-76
2022/06/12 02:34:12;;;;;;;1999.90;999.90;;;11.40;99.90;;;;;;5044505;28;20048;-76
2022/06/12 02:36:45;;;;;;;1999.90;999.90;;;11.30;99.90;;;;;;5067163;28;20052;-76
2022/06/12 02:39:22;;;;;;;1999.90;999.90;;;11.30;99.90;;;;;;5080578;28;20486;-76
2022/06/12 02:41:57;;;;;;;1999.90;999.90;;;11.30;99.90;;;;;;5077065;28;20044;-76
2022/06/12 02:44:49;;;;;;;1999.90;999.90;;;11.20;99.90;;;;;;5074339;28;20041;-76
2022/06/12 02:47:25;;;;;;;1999.90;999.90;;;11.30;99.90;;;;;;5057818;28;20078;-76
2022/06/12 02:49:54;;;;;;;1999.90;999.90;;;11.30;99.90;;;;;;5073249;28;20086;-76
2022/06/12 02:52:37;;;;;;;1999.90;999.90;;;11.20;99.90;;;;;;5061609;28;20144;-76
2022/06/12 02:55:27;;;;;;;1999.90;999.90;;;11.20;99.90;;;;;;5084873;28;20119;-76
2022/06/12 02:58:16;;;;;;;1999.90;999.90;;;11.10;99.90;;;;;;5077475;28;20040;-76
2022/06/12 03:00:50;;;;;;;1999.90;999.90;;;11.20;99.90;;;;;;5074621;28;20466;-76
2022/06/12 03:03:40;;;;;;;1999.90;999.90;;;11.10;99.90;;;;;;5072410;28;20535;-76
2022/06/12 03:06:06;;;;;;;1999.90;999.90;;;11.10;99.90;;;;;;5077169;28;20094;-76
2022/06/12 03:08:38;;;;;;;1999.90;999.90;;;11.10;99.90;;;;;;5082219;28;20063;-76
2022/06/12 03:11:16;;;;;;;1999.90;999.90;;;11.10;99.90;;;;;;5078356;28;20540;-76
2022/06/12 03:13:44;;;;;;;1999.90;999.90;;;11.10;99.90;;;;;;5061727;28;20060;-76
2022/06/12 03:16:20;;;;;;;1999.90;999.90;;;11.10;99.90;;;;;;5066474;28;20043;-76
2022/06/12 03:19:11;;;;;;;1999.90;999.90;;;11.10;99.90;;;;;;5057698;28;20445;-76
2022/06/12 03:22:08;;;;;;;1999.90;999.90;;;11.10;99.90;;;;;;5069611;28;20123;-76
2022/06/12 03:24:48;;;;;;;1999.90;999.90;;;11.10;99.90;;;;;;5080583;28;20045;-76
2022/06/12 03:27:53;;;;;;;1999.90;999.90;;;11.10;99.90;;;;;;5080717;28;20050;-76
2022/06/12 03:30:44;;;;;;;1999.90;999.90;;;11.10;99.90;;;;;;5075108;28;20073;-76
2022/06/12 03:33:50;;;;;;;1999.90;999.90;;;11.10;99.90;;;;;;5060601;28;20044;-76
2022/06/12 03:36:26;;;;;;;1999.90;999.90;;;11.10;99.90;;;;;;5083605;28;20744;-76
2022/06/12 03:39:06;;;;;;;1999.90;999.90;;;11.10;99.90;;;;;;5077047;28;20025;-76
2022/06/12 03:41:35;;;;;;;1999.90;999.90;;;11.10;99.90;;;;;;5079752;28;20050;-76
2022/06/12 03:44:14;;;;;;;1999.90;999.90;;;11.20;99.90;;;;;;5077066;28;20044;-76
2022/06/12 03:47:02;;;;;;;1999.90;999.90;;;11.20;99.90;;;;;;5047261;28;20035;-76
2022/06/12 03:49:45;;;;;;;1999.90;999.90;;;11.20;99.90;;;;;;5079138;28;20047;-76
2022/06/12 03:52:31;;;;;;;1999.90;999.90;;;11.20;99.90;;;;;;5080388;28;20052;-76
2022/06/12 03:58:25;;;;;;;1999.90;999.90;;;11.30;99.90;;;;;;5092928;28;20044;-76
2022/06/12 04:00:51;;;;;;;1999.90;999.90;;;11.40;99.90;;;;;;5075466;28;20066;-76
2022/06/12 04:03:45;;;;;;;1999.90;999.90;;;11.40;99.90;;;;;;5085386;28;20568;-76
2022/06/12 04:06:21;;;;;;;1999.90;999.90;;;11.50;99.90;;;;;;5079545;28;20039;-76
2022/06/12 04:08:53;;;;;;;1999.90;999.90;;;11.60;99.90;;;;;;5086118;28;20040;-76
2022/06/12 04:11:23;;;;;;;1999.90;999.90;;;11.70;99.90;;;;;;5057023;28;20440;-76
2022/06/12 04:13:50;;;;;;;1999.90;999.90;;;11.80;99.90;;;;;;5057099;28;20043;-76
2022/06/12 04:16:46;;;;;;;1999.90;999.90;;;11.90;99.90;;;;;;5015284;28;20045;-76
2022/06/12 04:19:16;;;;;;;1999.90;999.90;;;12.00;99.90;;;;;;5001527;28;20491;-76
2022/06/12 04:21:52;;;;;;;1999.90;999.90;;;12.10;99.90;;;;;;4998301;28;20148;-76
2022/06/12 04:24:27;;;;;;;1999.90;999.90;;;12.20;99.90;;;;;;4998491;28;20705;-76
2022/06/12 04:26:58;;;;;;;1999.90;999.90;;;12.30;99.90;;;;;;4986798;28;20149;-77
2022/06/12 04:29:34;;;;;;;1999.90;999.90;;;12.30;99.90;;;;;;5025096;28;20041;-76
2022/06/12 04:32:03;;;;;;;1999.90;999.90;;;12.30;99.90;;;;;;5019850;28;20046;-76
2022/06/12 04:34:35;;;;;;;1999.90;999.90;;;12.30;99.90;;;;;;5015181;28;20079;-77
2022/06/12 04:37:10;;;;;;;1999.90;999.90;;;12.40;99.90;;;;;;5019063;28;20045;-76
2022/06/12 04:39:35;;;;;;;1999.90;999.90;;;12.40;99.90;;;;;;5021390;28;20824;-76
2022/06/12 04:42:02;;;;;;;1999.90;999.90;;;12.40;99.90;;;;;;5018905;28;20041;-76
2022/06/12 04:44:29;;;;;;;1999.90;999.90;;;12.40;99.90;;;;;;5003108;28;20088;-76
2022/06/12 04:47:16;;;;;;;1999.90;999.90;;;12.40;99.90;;;;;;4997318;28;20507;-76
2022/06/12 04:49:52;;;;;;;1999.90;999.90;;;12.40;99.90;;;;;;4979923;28;20057;-76
2022/06/12 04:52:21;;;;;;;1999.90;999.90;;;12.50;99.90;;;;;;4957383;28;20137;-76
2022/06/12 04:54:47;;;;;;;1999.90;999.90;;;12.60;99.90;;;;;;5039347;28;20076;-76
2022/06/12 04:57:16;;;;;;;1999.90;999.90;;;12.70;99.90;;;;;;5045071;28;20057;-76
2022/06/12 04:59:43;;;;;;;1999.90;999.90;;;12.80;99.90;;;;;;5038957;28;20033;-76
2022/06/12 05:02:09;;;;;;;1999.90;999.90;;;12.90;99.90;;;;;;5029290;28;20052;-76
2022/06/12 05:04:36;;;;;;;1999.90;999.90;;;13.00;99.90;;;;;;5034406;28;20139;-77
2022/06/12 05:09:49;;;;;;;1999.90;999.90;;;13.30;99.90;;;;;;4938949;29;20083;-77
2022/06/12 05:12:14;;;;;;;1999.90;999.90;;;14.00;99.90;;;;;;4935953;29;20528;-77
2022/06/12 05:14:41;;;;;;;1999.90;999.90;;;14.90;99.90;;;;;;4933490;29;21032;-77
2022/06/12 05:17:14;;;;;;;1999.90;999.90;;;15.70;99.90;;;;;;4919613;29;20134;-77
2022/06/12 05:19:42;;;;;;;1999.90;999.90;;;16.50;99.90;;;;;;4936319;29;20070;-77
2022/06/12 05:22:09;;;;;;;1999.90;999.90;;;16.80;99.90;;;;;;4933185;29;20051;-77
2022/06/12 05:24:36;;;;;;;1999.90;999.90;;;16.90;99.90;;;;;;4940666;28;20048;-77
2022/06/12 05:27:05;;;;;;;1999.90;999.90;;;16.90;99.90;;;;;;4952811;28;20543;-77
2022/06/12 05:32:22;;;;;;;1999.90;999.90;;;16.30;99.90;;;;;;4909775;29;20048;-77
2022/06/12 05:34:48;;;;;;;1999.90;999.90;;;15.90;99.90;;;;;;4908519;29;20135;-77
2022/06/12 05:37:14;;;;;;;1999.90;999.90;;;15.70;99.90;;;;;;4900580;29;20066;-77
2022/06/12 05:39:42;;;;;;;1999.90;999.90;;;15.60;99.90;;;;;;4919159;29;20056;-77
2022/06/12 05:42:08;;;;;;;1999.90;999.90;;;15.60;99.90;;;;;;4919185;29;20136;-77
2022/06/12 05:44:35;;;;;;;1999.90;999.90;;;15.50;99.90;;;;;;4919070;29;20419;-77
2022/06/12 05:47:01;;;;;;;1999.90;999.90;;;15.50;99.90;;;;;;4967583;28;20053;-77
2022/06/12 05:49:27;;;;;;;1999.90;999.90;;;15.60;99.90;;;;;;4991892;28;20050;-78
2022/06/12 05:51:53;;;;;;;1999.90;999.90;;;15.70;99.90;;;;;;4990077;28;20046;-77
2022/06/12 05:54:19;;;;;;;1999.90;999.90;;;15.80;99.90;;;;;;4986937;28;20045;-77
2022/06/12 05:56:45;;;;;;;1999.90;999.90;;;15.90;99.90;;;;;;4998168;28;20575;-77
2022/06/12 05:59:10;;;;;;;1999.90;999.90;;;16.10;99.90;;;;;;4994879;28;20086;-78
2022/06/12 06:01:39;;;;;;;1999.90;999.90;;;16.50;99.90;;;;;;4993538;28;20507;-78
2022/06/12 06:04:05;;;;;;;1999.90;999.90;;;16.80;99.90;;;;;;4996344;28;20818;-77
2022/06/12 06:06:34;;;;;;;1999.90;999.90;;;17.60;99.90;;;;;;4998368;28;20858;-78
2022/06/12 06:09:02;;;;;;;1999.90;999.90;;;18.50;99.90;;;;;;5022339;28;20446;-78
2022/06/12 06:11:28;;;;;;;1999.90;999.90;;;19.50;99.90;;;;;;5073778;28;20032;-78
2022/06/12 06:13:54;;;;;;;1999.90;999.90;;;20.20;99.90;;;;;;5083377;28;20043;-78
2022/06/12 06:16:20;;;;;;;1999.90;999.90;;;21.00;99.90;;;;;;5063748;28;20517;-78
2022/06/12 06:18:46;;;;;;;1999.90;999.90;;;21.20;99.90;;;;;;5075062;28;20036;-78
2022/06/12 06:21:14;;;;;;;1999.90;999.90;;;21.10;99.90;;;;;;5058765;28;20490;-76
2022/06/12 06:23:42;;;;;;;1999.90;999.90;;;21.20;99.90;;;;;;5071585;28;20048;-77
2022/06/12 06:26:09;;;;;;;1999.90;999.90;;;21.40;99.90;;;;;;5080334;28;20117;-77
2022/06/12 06:28:36;;;;;;;1999.90;999.90;;;21.60;99.90;;;;;;5058334;28;20218;-78
2022/06/12 06:31:01;;;;;;;1999.90;999.90;;;22.20;99.90;;;;;;5076761;28;20040;-78
2022/06/12 06:33:27;;;;;;;1999.90;999.90;;;22.60;99.90;;;;;;5080505;28;20548;-78
2022/06/12 06:35:53;;;;;;;1999.90;999.90;;;22.90;99.90;;;;;;5078924;28;20042;-78
2022/06/12 06:38:19;;;;;;;1999.90;999.90;;;23.10;99.90;;;;;;5082807;28;20535;-78
2022/06/12 06:40:46;;;;;;;1999.90;999.90;;;23.20;99.90;;;;;;5066445;28;20036;-77
2022/06/12 06:43:12;;;;;;;1999.90;999.90;;;23.40;99.90;;;;;;5065615;28;20401;-77
2022/06/12 06:48:24;;;;;;;1999.90;999.90;;;23.90;99.90;;;;;;5078381;28;20485;-78
2022/06/12 06:50:50;;;;;;;1999.90;999.90;;;24.00;99.90;;;;;;5073978;28;20044;-78
2022/06/12 06:53:16;;;;;;;1999.90;999.90;;;24.20;99.90;;;;;;5080632;28;20115;-78
2022/06/12 06:55:42;;;;;;;1999.90;999.90;;;24.30;99.90;;;;;;5075677;28;20047;-77
2022/06/12 06:58:11;;;;;;;1999.90;999.90;;;24.20;99.90;;;;;;5076067;28;20054;-77
2022/06/12 07:00:38;;;;;;;1999.90;999.90;;;24.20;99.90;;;;;;5064934;28;20066;-77
2022/06/12 07:03:05;;;;;;;1999.90;999.90;;;24.10;99.90;;;;;;5082483;28;20133;-78
2022/06/12 07:05:31;;;;;;;1999.90;999.90;;;24.30;99.90;;;;;;5069619;28;20706;-76
2022/06/12 07:07:57;;;;;;;1999.90;999.90;;;24.10;99.90;;;;;;5066308;28;20044;-77
2022/06/12 07:10:24;;;;;;;1999.90;999.90;;;23.80;99.90;;;;;;5077934;28;20184;-77
2022/06/12 07:12:51;;;;;;;1999.90;999.90;;;23.70;99.90;;;;;;5077640;28;20489;-77
2022/06/12 07:15:18;;;;;;;1999.90;999.90;;;23.80;99.90;;;;;;5078235;28;20051;-78
2022/06/12 07:17:44;;;;;;;1999.90;999.90;;;23.80;99.90;;;;;;5089135;28;20036;-78
2022/06/12 07:20:12;;;;;;;1999.90;999.90;;;23.70;99.90;;;;;;5080874;28;20083;-78
2022/06/12 07:22:38;;;;;;;1999.90;999.90;;;23.80;99.90;;;;;;5052796;28;20032;-77
2022/06/12 07:25:04;;;;;;;1999.90;999.90;;;24.00;99.90;;;;;;5084502;28;20059;-77
2022/06/12 07:27:30;;;;;;;1999.90;999.90;;;24.20;99.90;;;;;;5083778;28;20040;-78
2022/06/12 07:29:56;;;;;;;1999.90;999.90;;;24.10;99.90;;;;;;5069832;28;20732;-77
2022/06/12 07:32:22;;;;;;;1999.90;999.90;;;23.80;99.90;;;;;;5082626;28;20485;-78
2022/06/12 07:34:48;;;;;;;1999.90;999.90;;;23.10;99.00;;;;;;5079649;28;20038;-77
2022/06/12 07:37:14;;;;;;;1999.90;999.90;;;22.80;99.90;;;;;;5078892;28;20036;-77
2022/06/12 07:39:40;;;;;;;1999.90;999.90;;;23.10;99.90;;;;;;5085447;28;20516;-77
2022/06/12 07:42:07;;;;;;;1999.90;999.90;;;23.40;99.90;;;;;;5066795;28;20036;-77
2022/06/12 07:44:34;;;;;;;1999.90;999.90;;;23.50;99.90;;;;;;5077647;28;20028;-78
2022/06/12 07:47:00;;;;;;;1999.90;999.90;;;23.40;99.90;;;;;;5080602;28;20072;-77
2022/06/12 07:49:28;;;;;;;1999.90;999.90;;;23.80;99.90;;;;;;5076539;28;20106;-77
2022/06/12 07:51:56;;;;;;;1999.90;999.90;;;23.90;99.90;;;;;;5082286;28;20053;-77
2022/06/12 07:54:22;;;;;;;1999.90;999.90;;;24.00;99.50;;;;;;5083214;28;20048;-78
2022/06/12 07:56:48;;;;;;;1999.90;999.90;;;24.40;98.90;;;;;;5078260;28;20513;-77
2022/06/12 07:59:14;;;;;;;1999.90;999.90;;;24.60;98.60;;;;;;5081943;28;20031;-77
2022/06/12 08:01:39;;;;;;;1999.90;999.90;;;24.20;98.50;;;;;;5077534;28;20089;-77
2022/06/12 08:04:07;;;;;;;1999.90;999.90;;;23.60;96.90;;;;;;5063162;28;20055;-77
2022/06/12 08:06:33;;;;;;;1999.90;999.90;;;23.60;99.90;;;;;;5079539;28;20040;-78
2022/06/12 08:08:59;;;;;;;1999.90;999.90;;;23.80;99.30;;;;;;5080091;28;20093;-78
2022/06/12 08:11:26;;;;;;;1999.90;999.90;;;23.80;98.80;;;;;;5052692;28;20163;-78
2022/06/12 08:13:52;;;;;;;1999.90;999.90;;;24.10;99.00;;;;;;5069152;28;20047;-78
2022/06/12 08:16:18;;;;;;;1999.90;999.90;;;24.40;99.50;;;;;;5081378;28;20503;-74
2022/06/12 08:18:44;;;;;;;1999.90;999.90;;;24.70;99.10;;;;;;5077108;28;20625;-75
2022/06/12 08:21:12;;;;;;;1999.90;999.90;;;24.60;97.90;;;;;;5066485;28;20037;-75
2022/06/12 08:23:49;;;;;;;1999.90;999.90;;;24.40;97.30;;;;;;5070508;28;20048;-75
2022/06/12 08:26:18;;;;;;;1999.90;999.90;;;24.10;95.50;;;;;;5076362;28;20036;-74
2022/06/12 08:28:52;;;;;;;1999.90;999.90;;;23.90;97.80;;;;;;5083872;28;20040;-75
2022/06/12 08:31:22;;;;;;;1999.90;999.90;;;23.60;97.20;;;;;;5084212;28;20063;-75
2022/06/12 08:33:51;;;;;;;1999.90;999.90;;;23.30;96.70;;;;;;5075298;28;20040;-75
2022/06/12 08:36:18;;;;;;;1999.90;999.90;;;22.70;97.70;;;;;;5060736;28;20136;-75
2022/06/12 08:38:44;;;;;;;1999.90;999.90;;;22.50;98.40;;;;;;5082898;28;20048;-74
2022/06/12 08:41:23;;;;;;;1999.90;999.90;;;22.70;98.60;;;;;;5085420;28;20040;-75
2022/06/12 08:44:14;;;;;;;1999.90;999.90;;;22.60;97.20;;;;;;5085565;28;20131;-75
2022/06/12 08:46:45;;;;;;;1999.90;999.90;;;22.00;97.40;;;;;;5076759;28;20101;-75
2022/06/12 08:49:18;;;;;;;1999.90;999.90;;;22.40;99.90;;;;;;5084185;28;20043;-74
2022/06/12 08:52:07;;;;;;;1999.90;999.90;;;23.10;96.90;;;;;;5069777;28;20503;-75
2022/06/12 08:54:46;;;;;;;1999.90;999.90;;;23.60;96.30;;;;;;5081307;28;20048;-76
2022/06/12 08:57:20;;;;;;;1999.90;999.90;;;23.50;95.90;;;;;;5077587;28;20074;-75
2022/06/12 08:59:58;;;;;;;1999.90;999.90;;;23.60;96.20;;;;;;5063475;28;20032;-75
2022/06/12 09:02:28;;;;;;;1999.90;999.90;;;23.70;94.90;;;;;;5048854;28;20397;-75
2022/06/12 09:04:54;;;;;;;1999.90;999.90;;;23.90;95.40;;;;;;5075078;28;20065;-75
2022/06/12 09:07:34;;;;;;;1999.90;999.90;;;24.40;95.30;;;;;;5075870;28;20040;-75
2022/06/12 09:10:07;;;;;;;1999.90;999.90;;;24.70;95.10;;;;;;5063388;28;20055;-74
2022/06/12 09:12:48;;;;;;;1999.90;999.90;;;25.00;95.10;;;;;;5064815;28;20440;-75
2022/06/12 09:15:19;;;;;;;1999.90;999.90;;;24.70;92.70;;;;;;5044716;28;20782;-74
2022/06/12 09:18:13;;;;;;;1999.90;999.90;;;23.90;92.40;;;;;;5082922;28;20043;-74
2022/06/12 09:21:00;;;;;;;1999.90;999.90;;;23.40;94.10;;;;;;5053777;28;20693;-75
2022/06/12 09:23:47;;;;;;;1999.90;999.90;;;23.90;93.70;;;;;;5061125;28;20114;-75
2022/06/12 09:26:37;;;;;;;1999.90;999.90;;;24.40;93.80;;;;;;5073154;28;20171;-75
2022/06/12 09:29:14;;;;;;;1999.90;999.90;;;25.00;92.90;;;;;;5071197;28;20036;-75
2022/06/12 09:32:06;;;;;;;1999.90;999.90;;;25.30;86.00;;;;;;5084935;28;20057;-75
2022/06/12 09:34:51;;;;;;;1999.90;999.90;;;24.80;80.10;;;;;;5039641;28;20044;-75
2022/06/12 09:40:38;;;;;;;1999.90;999.90;;;24.00;85.90;;;;;;5085181;28;20049;-75
2022/06/12 09:43:22;;;;;;;1999.90;999.90;;;24.20;84.00;;;;;;5065386;28;20051;-73
2022/06/12 09:46:17;;;;;;;1999.90;999.90;;;24.00;81.20;;;;;;5084735;28;20039;-74
2022/06/12 09:48:52;;;;;;;1999.90;999.90;;;23.40;82.50;;;;;;5087082;28;20075;-75
2022/06/12 09:51:59;;;;;;;1999.90;999.90;;;23.10;87.00;;;;;;5080019;28;20051;-75
2022/06/12 09:54:25;;;;;;;1999.90;999.90;;;23.50;85.00;;;;;;4981193;28;20117;-75
2022/06/12 09:57:05;;;;;;;1999.90;999.90;;;23.90;85.20;;;;;;4964617;28;20042;-75
2022/06/12 10:00:16;;;;;;;1999.90;999.90;;;24.00;82.20;;;;;;4963899;28;20177;-74
2022/06/12 10:02:54;;;;;;;1999.90;999.90;;;23.40;78.50;;;;;;4982603;28;20149;-75
2022/06/12 10:05:31;;;;;;;1999.90;999.90;;;22.80;74.40;;;;;;4978299;28;20055;-75
2022/06/12 10:08:09;;;;;;;1999.90;999.90;;;22.70;80.60;;;;;;4975349;28;20062;-74
2022/06/12 10:10:51;;;;;;;1999.90;999.90;;;23.00;83.50;;;;;;4975222;28;20035;-75
2022/06/12 10:13:23;;;;;;;1999.90;999.90;;;23.00;79.40;;;;;;4963562;28;20080;-75
2022/06/12 10:16:02;;;;;;;1999.90;999.90;;;22.60;78.90;;;;;;4977244;28;20078;-74
2022/06/12 10:19:01;;;;;;;1999.90;999.90;;;22.40;77.10;;;;;;4973823;28;20113;-75
2022/06/12 10:21:27;;;;;;;1999.90;999.90;;;22.50;78.50;;;;;;4980217;28;21065;-74
2022/06/12 10:23:53;;;;;;;1999.90;999.90;;;22.90;77.80;;;;;;4978503;28;20117;-74
2022/06/12 10:26:29;;;;;;;1999.90;999.90;;;23.30;77.50;;;;;;4977477;28;20066;-75
2022/06/12 10:29:10;;;;;;;1999.90;999.90;;;23.60;78.40;;;;;;4980106;28;20465;-74
2022/06/12 10:31:54;;;;;;;1999.90;999.90;;;24.00;78.20;;;;;;5057487;28;20127;-75
2022/06/12 10:34:23;;;;;;;1999.90;999.90;;;24.00;72.60;;;;;;5086720;28;20052;-75
2022/06/12 10:36:49;;;;;;;1999.90;999.90;;;23.50;73.10;;;;;;5084127;28;20080;-74
2022/06/12 10:39:17;;;;;;;1999.90;999.90;;;23.20;72.70;;;;;;5066189;28;20447;-74
2022/06/12 10:41:56;;;;;;;1999.90;999.90;;;23.30;69.80;;;;;;5079540;28;20161;-75
2022/06/12 10:44:39;;;;;;;1999.90;999.90;;;23.60;74.10;;;;;;5074068;28;20036;-74
2022/06/12 10:47:07;;;;;;;;;;;23.80;75.80;;;;;;5043855;28;20048;-74
2022/06/12 10:49:33;;;;;;;1999.90;999.90;;;23.70;71.40;;;;;;5059750;28;20083;-74
2022/06/12 10:52:16;;;;;;;1999.90;999.90;;;23.30;72.40;;;;;;5072910;28;20191;-74
2022/06/12 10:54:41;;;;;;;1999.90;999.90;;;23.10;72.10;;;;;;5077152;28;20123;-74
2022/06/12 10:57:25;;;;;;;1999.90;999.90;;;22.80;72.90;;;;;;5078719;28;20049;-74
2022/06/12 11:00:19;;;;;;;1999.90;999.90;;;22.60;71.90;;;;;;5075531;28;20067;-74
2022/06/12 11:03:18;;;;;;;1999.90;999.90;;;22.50;74.20;;;;;;5079475;28;20036;-74
2022/06/12 11:06:05;;;;;;;1999.90;999.90;;;22.50;77.10;;;;;;5078870;28;20068;-77
2022/06/12 11:09:08;;;;;;;1999.90;999.90;;;22.90;79.50;;;;;;5077367;28;20127;-77
2022/06/12 11:11:43;;;;;;;1999.90;999.90;;;23.20;75.50;;;;;;5080318;28;20090;-76
2022/06/12 11:14:28;;;;;;;1999.90;999.90;;;23.30;74.40;;;;;;5059296;28;20048;-76
2022/06/12 11:17:24;;;;;;;1999.90;999.90;;;23.50;74.50;;;;;;5058463;28;20047;-76
2022/06/12 11:20:20;;;;;;;1999.90;999.90;;;23.40;72.60;;;;;;5077046;28;20125;-75
2022/06/12 11:23:01;;;;;;;1999.90;999.90;;;23.20;74.30;;;;;;5075828;28;20040;-76
2022/06/12 11:25:30;;;;;;;1999.90;999.90;;;23.10;75.70;;;;;;5074741;28;20127;-76
2022/06/12 11:28:40;;;;;;;1999.90;999.90;;;22.80;72.50;;;;;;5046452;28;20488;-78
2022/06/12 11:31:29;;;;;;;1999.90;999.90;;;22.20;70.20;;;;;;5077405;28;20135;-76
2022/06/12 11:34:20;;;;;;;1999.90;999.90;;;21.90;73.30;;;;;;5057650;28;20127;-76
2022/06/12 11:36:53;;;;;;;1999.90;999.90;;;21.70;72.00;;;;;;5064325;28;20467;-76
2022/06/12 11:39:50;;;;;;;1999.90;999.90;;;21.60;75.20;;;;;;5078489;28;20047;-76
2022/06/12 11:42:30;;;;;;;1999.90;999.90;;;22.00;75.50;;;;;;5076315;28;20097;-77
2022/06/12 11:45:17;;;;;;;1999.90;999.90;;;22.20;74.70;;;;;;5077053;28;20051;-76
2022/06/12 11:48:27;;;;;;;1999.90;999.90;;;22.40;68.70;;;;;;5057142;28;20054;-77
2022/06/12 11:51:01;;;;;;;1999.90;999.90;;;22.50;69.10;;;;;;5045106;28;20421;-75
2022/06/12 11:54:12;;;;;;;1999.90;999.90;;;22.50;68.70;;;;;;5043733;28;20444;-76
2022/06/12 11:56:59;;;;;;;1999.90;999.90;;;22.60;72.10;;;;;;4979838;28;20467;-76
2022/06/12 11:59:37;;;;;;;1999.90;999.90;;;22.80;73.70;;;;;;4985397;28;20042;-76
2022/06/12 12:02:12;;;;;;;1999.90;999.90;;;23.00;71.50;;;;;;4977121;28;20096;-77
2022/06/12 12:04:43;;;;;;;1999.90;999.90;;;22.90;72.10;;;;;;4983434;28;20046;-77
2022/06/12 12:07:28;;;;;;;1999.90;999.90;;;22.70;73.00;;;;;;4984004;28;20054;-76
2022/06/12 12:10:20;;;;;;;1999.90;999.90;;;22.70;73.90;;;;;;4987352;28;20128;-76
2022/06/12 12:12:52;;;;;;;1999.90;999.90;;;22.70;74.10;;;;;;4984222;28;20157;-77
2022/06/12 12:15:23;;;;;;;1999.90;999.90;;;22.80;76.70;;;;;;4979087;28;20070;-77
2022/06/12 12:17:51;;;;;;;1999.90;999.90;;;23.00;73.80;;;;;;4967766;28;20487;-76
2022/06/12 12:20:38;;;;;;;1999.90;999.90;;;23.10;71.80;;;;;;4984252;28;20567;-77
2022/06/12 12:23:13;;;;;;;1999.90;999.90;;;23.10;74.70;;;;;;4983177;28;20132;-76
2022/06/12 12:26:07;;;;;;;1999.90;999.90;;;23.40;73.70;;;;;;4977637;28;20085;-76
2022/06/12 12:28:38;;;;;;;1999.90;999.90;;;23.60;71.80;;;;;;4968131;28;20105;-76
2022/06/12 12:31:07;;;;;;;1999.90;999.90;;;23.50;68.50;;;;;;4984369;28;20191;-76
2022/06/12 12:33:33;;;;;;;1999.90;999.90;;;23.40;72.70;;;;;;5036374;28;20409;-76
2022/06/12 12:41:54;;;;;;;1999.90;999.90;;;22.50;68.70;;;;;;5081227;28;20052;-76
2022/06/12 12:44:33;;;;;;;1999.90;999.90;;;22.30;70.20;;;;;;5083970;28;20051;-76
2022/06/12 12:46:59;;;;;;;1999.90;999.90;;;22.10;71.50;;;;;;5088766;28;20497;-77
2022/06/12 12:49:35;;;;;;;1999.90;999.90;;;22.10;70.10;;;;;;5078126;28;20115;-78
2022/06/12 12:52:10;;;;;;;1999.90;999.90;;;22.40;72.60;;;;;;5083937;28;20036;-77
2022/06/12 12:54:53;;;;;;;1999.90;999.90;;;22.70;71.70;;;;;;5063850;28;20125;-77
2022/06/12 12:57:34;;;;;;;1999.90;999.90;;;22.60;71.70;;;;;;5080500;28;20110;-76
2022/06/12 13:00:00;;;;;;;1999.90;999.90;;;22.50;69.50;;;;;;5068708;28;20040;-77
2022/06/12 13:02:28;;;;;;;1999.90;999.90;;;22.60;71.60;;;;;;5082436;28;20047;-77
2022/06/12 13:05:14;;;;;;;1999.90;999.90;;;22.60;68.00;;;;;;5078838;28;20051;-77